createdAt,value
2018-03-25T00:00:06.027Z,965.92
2018-03-25T00:01:05.427Z,965.81
2018-03-25T00:02:05.461Z,965.69
2018-03-25T00:03:05.344Z,965.69
2018-03-25T00:04:05.893Z,965.78
2018-03-25T00:05:05.722Z,965.75
2018-03-25T00:06:05.740Z,965.75
2018-03-25T00:07:06.092Z,965.70
2018-03-25T00:08:05.132Z,965.70
2018-03-25T00:09:08.138Z,965.70
2018-03-25T00:10:05.305Z,965.84
2018-03-25T00:11:05.867Z,965.65
2018-03-25T00:12:05.903Z,965.79
2018-03-25T00:13:05.930Z,965.65
2018-03-25T00:14:05.490Z,965.79
2018-03-25T00:15:05.532Z,965.71
2018-03-25T00:16:05.484Z,965.74
2018-03-25T00:17:05.806Z,965.79
2018-03-25T00:18:05.888Z,965.80
2018-03-25T00:19:05.377Z,965.80
2018-03-25T00:20:05.490Z,965.80
2018-03-25T00:21:05.732Z,965.80
2018-03-25T00:22:05.603Z,965.78
2018-03-25T00:23:05.258Z,965.83
2018-03-25T00:24:05.154Z,965.86
2018-03-25T00:25:05.041Z,965.92
2018-03-25T00:26:05.088Z,965.78
2018-03-25T00:27:05.021Z,965.87
2018-03-25T00:28:05.265Z,965.81
2018-03-25T00:29:05.335Z,965.76
2018-03-25T00:30:05.293Z,965.73
2018-03-25T00:31:05.721Z,965.79
2018-03-25T00:32:05.349Z,965.82
2018-03-25T00:33:05.795Z,965.90
2018-03-25T00:34:05.572Z,965.85
2018-03-25T00:35:05.097Z,965.90
2018-03-25T00:36:05.892Z,965.85
2018-03-25T00:37:05.491Z,965.82
2018-03-25T00:38:05.164Z,965.77
2018-03-25T00:39:05.139Z,965.83
2018-03-25T00:40:06.093Z,965.99
2018-03-25T00:41:05.464Z,966.02
2018-03-25T00:42:05.447Z,965.85
2018-03-25T00:43:06.350Z,965.99
2018-03-25T00:44:05.586Z,966.05
2018-03-25T00:45:05.111Z,965.97
2018-03-25T00:46:05.060Z,965.94
2018-03-25T00:47:05.826Z,965.94
2018-03-25T00:48:05.198Z,965.74
2018-03-25T00:49:05.614Z,965.85
2018-03-25T00:50:05.723Z,965.91
2018-03-25T00:51:05.744Z,965.94
2018-03-25T00:52:05.437Z,965.88
2018-03-25T00:53:05.462Z,965.75
2018-03-25T00:54:06.043Z,965.89
2018-03-25T00:55:05.885Z,965.77
2018-03-25T00:56:05.825Z,965.75
2018-03-25T00:57:05.128Z,965.75
2018-03-25T00:58:06.031Z,965.81
2018-03-25T00:59:05.450Z,965.81
2018-03-25T01:00:06.017Z,965.67
2018-03-25T01:01:05.671Z,965.90
2018-03-25T01:02:05.000Z,965.76
2018-03-25T01:03:05.589Z,965.90
2018-03-25T01:04:05.449Z,965.81
2018-03-25T01:05:05.587Z,965.90
2018-03-25T01:06:05.506Z,965.90
2018-03-25T01:07:05.125Z,965.82
2018-03-25T01:08:05.788Z,965.87
2018-03-25T01:09:05.896Z,965.88
2018-03-25T01:10:05.926Z,966.07
2018-03-25T01:11:05.602Z,965.91
2018-03-25T01:12:05.293Z,965.80
2018-03-25T01:13:05.261Z,965.88
2018-03-25T01:14:05.170Z,965.86
2018-03-25T01:15:11.149Z,965.83
2018-03-25T01:16:05.312Z,965.64
2018-03-25T01:17:05.983Z,965.67
2018-03-25T01:18:10.863Z,965.75
2018-03-25T01:19:11.786Z,965.84
2018-03-25T01:20:05.753Z,965.78
2018-03-25T01:21:05.788Z,965.81
2018-03-25T01:22:05.632Z,965.78
2018-03-25T01:23:06.751Z,965.70
2018-03-25T01:24:05.514Z,965.81
2018-03-25T01:25:05.839Z,965.84
2018-03-25T01:26:05.389Z,965.82
2018-03-25T01:27:05.514Z,965.87
2018-03-25T01:28:05.487Z,965.90
2018-03-25T01:29:05.295Z,965.76
2018-03-25T01:30:04.946Z,965.93
2018-03-25T01:31:05.707Z,965.82
2018-03-25T01:32:05.983Z,965.99
2018-03-25T01:33:06.022Z,965.93
2018-03-25T01:34:05.968Z,965.63
2018-03-25T01:35:05.243Z,965.93
2018-03-25T01:36:05.227Z,965.88
2018-03-25T01:37:05.374Z,965.91
2018-03-25T01:38:04.990Z,965.88
2018-03-25T01:39:05.055Z,965.91
2018-03-25T01:40:05.206Z,965.94
2018-03-25T01:41:05.746Z,965.99
2018-03-25T01:42:05.588Z,965.94
2018-03-25T01:43:05.489Z,965.83
2018-03-25T01:44:05.513Z,965.83
2018-03-25T01:45:05.605Z,965.86
2018-03-25T01:46:05.815Z,965.86
2018-03-25T01:47:05.293Z,965.75
2018-03-25T01:48:05.177Z,965.69
2018-03-25T01:49:05.265Z,965.80
2018-03-25T01:50:05.877Z,965.86
2018-03-25T01:51:05.776Z,965.75
2018-03-25T01:52:05.666Z,965.75
2018-03-25T01:53:05.389Z,965.92
2018-03-25T01:54:05.136Z,965.75
2018-03-25T01:55:05.858Z,965.81
2018-03-25T01:56:05.951Z,965.75
2018-03-25T01:57:05.749Z,965.81
2018-03-25T01:58:05.928Z,965.67
2018-03-25T01:59:05.640Z,965.95
2018-03-25T02:00:05.880Z,965.76
2018-03-25T02:01:05.657Z,965.84
2018-03-25T02:02:05.563Z,965.81
2018-03-25T02:03:05.491Z,965.73
2018-03-25T02:04:05.762Z,965.93
2018-03-25T02:05:05.647Z,965.76
2018-03-25T02:06:05.229Z,965.87
2018-03-25T02:07:05.215Z,965.79
2018-03-25T02:08:04.930Z,965.76
2018-03-25T02:09:06.686Z,965.82
2018-03-25T02:10:05.281Z,965.96
2018-03-25T02:11:05.190Z,965.82
2018-03-25T02:12:05.317Z,965.91
2018-03-25T02:13:05.707Z,965.65
2018-03-25T02:14:05.375Z,965.93
2018-03-25T02:15:05.509Z,965.82
2018-03-25T02:16:04.999Z,965.93
2018-03-25T02:17:05.093Z,965.71
2018-03-25T02:18:05.711Z,965.82
2018-03-25T02:19:05.164Z,965.74
2018-03-25T02:20:05.159Z,965.88
2018-03-25T02:21:05.154Z,965.82
2018-03-25T02:22:05.656Z,965.74
2018-03-25T02:23:05.830Z,965.80
2018-03-25T02:24:05.019Z,965.88
2018-03-25T02:25:05.192Z,965.96
2018-03-25T02:26:04.932Z,965.94
2018-03-25T02:27:06.283Z,965.94
2018-03-25T02:28:05.933Z,965.99
2018-03-25T02:29:05.120Z,965.80
2018-03-25T02:30:05.832Z,965.97
2018-03-25T02:31:05.476Z,965.80
2018-03-25T02:32:05.392Z,965.99
2018-03-25T02:33:06.075Z,965.89
2018-03-25T02:34:05.244Z,965.75
2018-03-25T02:35:05.640Z,965.89
2018-03-25T02:36:05.238Z,965.91
2018-03-25T02:37:05.952Z,965.89
2018-03-25T02:38:05.151Z,965.86
2018-03-25T02:39:05.256Z,965.89
2018-03-25T02:40:05.803Z,965.89
2018-03-25T02:41:05.517Z,965.87
2018-03-25T02:42:05.447Z,965.89
2018-03-25T02:43:05.595Z,965.81
2018-03-25T02:44:05.898Z,965.90
2018-03-25T02:45:05.547Z,965.84
2018-03-25T02:46:05.242Z,966.04
2018-03-25T02:47:05.743Z,966.01
2018-03-25T02:48:05.606Z,965.93
2018-03-25T02:49:05.598Z,965.87
2018-03-25T02:50:05.814Z,965.93
2018-03-25T02:51:05.997Z,965.96
2018-03-25T02:52:05.574Z,965.87
2018-03-25T02:53:05.120Z,965.85
2018-03-25T02:54:05.728Z,965.93
2018-03-25T02:55:05.294Z,965.88
2018-03-25T02:56:05.024Z,966.01
2018-03-25T02:57:05.420Z,965.71
2018-03-25T02:58:05.004Z,965.79
2018-03-25T02:59:05.035Z,965.88
2018-03-25T03:00:05.699Z,965.85
2018-03-25T03:01:05.341Z,965.93
2018-03-25T03:02:05.376Z,965.80
2018-03-25T03:03:05.159Z,965.91
2018-03-25T03:04:05.061Z,965.99
2018-03-25T03:05:05.635Z,965.99
2018-03-25T03:06:05.601Z,965.83
2018-03-25T03:07:06.049Z,965.93
2018-03-25T03:08:05.937Z,965.93
2018-03-25T03:09:05.783Z,965.91
2018-03-25T03:10:05.140Z,965.88
2018-03-25T03:11:05.794Z,965.85
2018-03-25T03:12:05.495Z,965.80
2018-03-25T03:13:05.624Z,965.85
2018-03-25T03:14:05.803Z,965.91
2018-03-25T03:15:05.397Z,965.99
2018-03-25T03:16:05.488Z,965.86
2018-03-25T03:17:05.130Z,965.94
2018-03-25T03:18:05.342Z,965.80
2018-03-25T03:19:11.022Z,965.91
2018-03-25T03:20:05.160Z,965.94
2018-03-25T03:21:05.641Z,965.66
2018-03-25T03:22:05.468Z,965.80
2018-03-25T03:23:05.244Z,965.83
2018-03-25T03:24:05.856Z,965.83
2018-03-25T03:25:05.894Z,965.70
2018-03-25T03:26:06.227Z,965.86
2018-03-25T03:27:05.622Z,965.86
2018-03-25T03:28:05.722Z,965.98
2018-03-25T03:29:05.969Z,965.84
2018-03-25T03:30:05.095Z,965.92
2018-03-25T03:31:05.870Z,965.84
2018-03-25T03:32:05.182Z,966.01
2018-03-25T03:33:05.440Z,965.79
2018-03-25T03:34:05.522Z,965.93
2018-03-25T03:35:05.231Z,965.90
2018-03-25T03:36:05.529Z,965.87
2018-03-25T03:37:05.062Z,965.95
2018-03-25T03:38:05.850Z,965.81
2018-03-25T03:39:06.096Z,965.98
2018-03-25T03:40:06.161Z,965.93
2018-03-25T03:41:05.609Z,965.87
2018-03-25T03:42:10.735Z,965.90
2018-03-25T03:43:05.630Z,965.93
2018-03-25T03:44:05.304Z,965.71
2018-03-25T03:45:05.299Z,965.82
2018-03-25T03:46:05.218Z,965.85
2018-03-25T03:47:05.314Z,965.79
2018-03-25T03:48:10.875Z,965.85
2018-03-25T03:49:05.698Z,965.82
2018-03-25T03:50:05.614Z,965.96
2018-03-25T03:51:05.338Z,966.04
2018-03-25T03:52:05.251Z,965.90
2018-03-25T03:53:05.460Z,965.99
2018-03-25T03:54:05.524Z,965.91
2018-03-25T03:55:05.640Z,965.91
2018-03-25T03:56:05.695Z,965.94
2018-03-25T03:57:05.120Z,965.99
2018-03-25T03:58:05.925Z,966.10
2018-03-25T03:59:05.426Z,965.86
2018-03-25T04:00:05.768Z,966.13
2018-03-25T04:01:05.570Z,965.97
2018-03-25T04:02:05.244Z,965.80
2018-03-25T04:03:05.869Z,965.83
2018-03-25T04:04:05.990Z,965.97
2018-03-25T04:05:05.032Z,965.94
2018-03-25T04:06:05.658Z,965.86
2018-03-25T04:07:05.611Z,966.00
2018-03-25T04:08:05.834Z,965.86
2018-03-25T04:09:05.410Z,965.83
2018-03-25T04:10:05.464Z,965.86
2018-03-25T04:11:05.973Z,966.00
2018-03-25T04:12:05.527Z,965.94
2018-03-25T04:13:05.637Z,965.89
2018-03-25T04:14:05.679Z,966.00
2018-03-25T04:15:06.002Z,965.94
2018-03-25T04:16:06.022Z,966.05
2018-03-25T04:17:05.267Z,966.03
2018-03-25T04:18:05.885Z,965.97
2018-03-25T04:19:05.871Z,965.92
2018-03-25T04:20:05.104Z,965.97
2018-03-25T04:21:05.783Z,966.03
2018-03-25T04:22:05.386Z,966.00
2018-03-25T04:23:05.165Z,965.95
2018-03-25T04:24:05.386Z,965.92
2018-03-25T04:25:07.390Z,965.98
2018-03-25T04:26:05.119Z,965.97
2018-03-25T04:27:05.264Z,965.92
2018-03-25T04:28:05.900Z,966.11
2018-03-25T04:29:05.866Z,966.06
2018-03-25T04:30:05.652Z,965.98
2018-03-25T04:31:05.776Z,965.86
2018-03-25T04:32:06.091Z,966.03
2018-03-25T04:33:05.986Z,965.98
2018-03-25T04:34:05.440Z,966.03
2018-03-25T04:35:05.612Z,966.12
2018-03-25T04:36:05.871Z,966.01
2018-03-25T04:37:05.329Z,965.95
2018-03-25T04:38:05.736Z,966.06
2018-03-25T04:39:05.603Z,966.06
2018-03-25T04:40:05.391Z,966.06
2018-03-25T04:41:05.342Z,966.03
2018-03-25T04:42:05.988Z,966.06
2018-03-25T04:43:05.259Z,966.17
2018-03-25T04:44:10.729Z,966.09
2018-03-25T04:45:05.562Z,966.09
2018-03-25T04:46:05.258Z,966.12
2018-03-25T04:47:05.533Z,966.09
2018-03-25T04:48:05.522Z,966.04
2018-03-25T04:49:05.766Z,966.23
2018-03-25T04:50:05.656Z,966.31
2018-03-25T04:51:05.905Z,966.15
2018-03-25T04:52:05.052Z,966.07
2018-03-25T04:53:05.813Z,966.21
2018-03-25T04:54:05.858Z,966.15
2018-03-25T04:55:05.569Z,966.21
2018-03-25T04:56:10.544Z,966.01
2018-03-25T04:57:05.379Z,966.15
2018-03-25T04:58:05.090Z,966.21
2018-03-25T04:59:05.675Z,966.18
2018-03-25T05:00:05.227Z,966.26
2018-03-25T05:01:05.815Z,966.26
2018-03-25T05:02:05.937Z,966.26
2018-03-25T05:03:05.705Z,966.23
2018-03-25T05:04:05.786Z,966.32
2018-03-25T05:05:05.009Z,966.26
2018-03-25T05:06:05.182Z,966.34
2018-03-25T05:07:05.393Z,966.29
2018-03-25T05:08:05.763Z,966.21
2018-03-25T05:09:05.834Z,966.37
2018-03-25T05:10:05.729Z,966.35
2018-03-25T05:11:05.824Z,966.35
2018-03-25T05:12:06.067Z,966.35
2018-03-25T05:13:05.621Z,966.24
2018-03-25T05:14:05.819Z,966.41
2018-03-25T05:15:05.543Z,966.32
2018-03-25T05:16:05.811Z,966.41
2018-03-25T05:17:05.371Z,966.30
2018-03-25T05:18:05.319Z,966.30
2018-03-25T05:19:06.038Z,966.30
2018-03-25T05:20:06.001Z,966.35
2018-03-25T05:21:05.560Z,966.24
2018-03-25T05:22:05.420Z,966.18
2018-03-25T05:23:05.480Z,966.41
2018-03-25T05:24:05.444Z,966.43
2018-03-25T05:25:05.457Z,966.35
2018-03-25T05:26:05.319Z,966.49
2018-03-25T05:27:05.277Z,966.54
2018-03-25T05:28:10.428Z,966.32
2018-03-25T05:29:05.665Z,966.43
2018-03-25T05:30:06.257Z,966.26
2018-03-25T05:31:06.082Z,966.29
2018-03-25T05:32:05.036Z,966.29
2018-03-25T05:33:05.316Z,966.34
2018-03-25T05:34:05.730Z,966.45
2018-03-25T05:35:08.914Z,966.28
2018-03-25T05:36:05.074Z,966.23
2018-03-25T05:37:05.251Z,966.36
2018-03-25T05:38:04.960Z,966.47
2018-03-25T05:39:05.720Z,966.41
2018-03-25T05:40:05.707Z,966.35
2018-03-25T05:41:10.345Z,966.62
2018-03-25T05:42:05.534Z,966.45
2018-03-25T05:43:05.056Z,966.56
2018-03-25T05:44:06.088Z,966.55
2018-03-25T05:45:05.258Z,966.66
2018-03-25T05:46:05.602Z,966.63
2018-03-25T05:47:05.270Z,966.43
2018-03-25T05:48:05.538Z,966.56
2018-03-25T05:49:05.014Z,966.72
2018-03-25T05:50:05.120Z,966.77
2018-03-25T05:51:05.924Z,966.65
2018-03-25T05:52:05.568Z,966.70
2018-03-25T05:53:05.848Z,966.63
2018-03-25T05:54:05.908Z,966.71
2018-03-25T05:55:05.159Z,966.62
2018-03-25T05:56:05.464Z,966.69
2018-03-25T05:57:05.383Z,966.80
2018-03-25T05:58:05.434Z,966.68
2018-03-25T05:59:05.635Z,966.84
2018-03-25T06:00:05.844Z,966.69
2018-03-25T06:01:05.425Z,966.63
2018-03-25T06:02:05.703Z,966.71
2018-03-25T06:03:06.146Z,966.86
2018-03-25T06:04:05.715Z,966.91
2018-03-25T06:05:05.552Z,966.65
2018-03-25T06:06:05.153Z,966.67
2018-03-25T06:07:05.160Z,966.72
2018-03-25T06:08:05.343Z,966.80
2018-03-25T06:09:05.414Z,966.71
2018-03-25T06:10:05.971Z,966.73
2018-03-25T06:11:05.603Z,966.83
2018-03-25T06:12:05.085Z,966.71
2018-03-25T06:13:05.850Z,966.68
2018-03-25T06:14:05.783Z,966.78
2018-03-25T06:15:05.685Z,966.83
2018-03-25T06:16:05.541Z,966.77
2018-03-25T06:17:05.431Z,966.65
2018-03-25T06:18:05.099Z,966.87
2018-03-25T06:19:05.139Z,966.81
2018-03-25T06:20:05.944Z,966.74
2018-03-25T06:21:05.922Z,966.88
2018-03-25T06:22:05.973Z,966.73
2018-03-25T06:23:05.659Z,966.78
2018-03-25T06:24:10.377Z,966.88
2018-03-25T06:25:05.206Z,966.74
2018-03-25T06:26:05.097Z,966.78
2018-03-25T06:27:05.622Z,966.92
2018-03-25T06:28:05.590Z,966.91
2018-03-25T06:29:05.841Z,966.90
2018-03-25T06:30:05.804Z,966.92
2018-03-25T06:31:05.051Z,967.10
2018-03-25T06:32:05.567Z,966.97
2018-03-25T06:33:05.532Z,966.88
2018-03-25T06:34:05.387Z,967.01
2018-03-25T06:35:05.837Z,966.98
2018-03-25T06:36:05.736Z,967.02
2018-03-25T06:37:05.778Z,966.94
2018-03-25T06:38:05.647Z,966.96
2018-03-25T06:39:05.034Z,966.96
2018-03-25T06:40:05.895Z,967.08
2018-03-25T06:41:06.205Z,967.01
2018-03-25T06:42:05.736Z,967.02
2018-03-25T06:43:05.332Z,966.97
2018-03-25T06:44:05.048Z,967.12
2018-03-25T06:45:05.062Z,967.06
2018-03-25T06:46:05.926Z,967.11
2018-03-25T06:47:10.518Z,967.08
2018-03-25T06:48:05.744Z,967.10
2018-03-25T06:49:05.773Z,967.04
2018-03-25T06:50:05.408Z,967.23
2018-03-25T06:51:05.610Z,967.25
2018-03-25T06:52:05.980Z,967.17
2018-03-25T06:53:10.004Z,967.05
2018-03-25T06:54:05.157Z,967.07
2018-03-25T06:55:05.551Z,967.29
2018-03-25T06:56:05.204Z,967.15
2018-03-25T06:57:05.486Z,967.20
2018-03-25T06:58:05.670Z,967.03
2018-03-25T06:59:06.289Z,967.03
2018-03-25T07:00:05.517Z,967.17
2018-03-25T07:01:05.152Z,967.25
2018-03-25T07:02:04.999Z,967.22
2018-03-25T07:03:05.842Z,967.10
2018-03-25T07:04:05.609Z,967.21
2018-03-25T07:05:05.891Z,967.13
2018-03-25T07:06:05.902Z,967.12
2018-03-25T07:07:05.978Z,967.14
2018-03-25T07:08:04.996Z,967.14
2018-03-25T07:09:05.595Z,967.31
2018-03-25T07:10:05.573Z,967.08
2018-03-25T07:11:05.237Z,967.25
2018-03-25T07:12:05.719Z,967.22
2018-03-25T07:13:05.841Z,967.30
2018-03-25T07:14:05.057Z,967.18
2018-03-25T07:15:05.767Z,967.30
2018-03-25T07:16:05.847Z,967.35
2018-03-25T07:17:05.572Z,967.29
2018-03-25T07:18:05.338Z,967.32
2018-03-25T07:19:05.163Z,967.21
2018-03-25T07:20:05.103Z,967.35
2018-03-25T07:21:05.193Z,967.18
2018-03-25T07:22:05.980Z,967.17
2018-03-25T07:23:05.198Z,967.26
2018-03-25T07:24:05.890Z,967.28
2018-03-25T07:25:05.378Z,967.17
2018-03-25T07:26:05.359Z,967.47
2018-03-25T07:27:05.539Z,967.44
2018-03-25T07:28:10.532Z,967.41
2018-03-25T07:29:05.105Z,967.44
2018-03-25T07:30:05.146Z,967.49
2018-03-25T07:31:05.796Z,967.36
2018-03-25T07:32:05.252Z,967.36
2018-03-25T07:33:05.858Z,967.33
2018-03-25T07:34:05.629Z,967.43
2018-03-25T07:35:04.955Z,967.43
2018-03-25T07:36:05.762Z,967.40
2018-03-25T07:37:05.433Z,967.45
2018-03-25T07:38:05.698Z,967.54
2018-03-25T07:39:05.917Z,967.39
2018-03-25T07:40:05.926Z,967.39
2018-03-25T07:41:05.802Z,967.32
2018-03-25T07:42:05.923Z,967.42
2018-03-25T07:43:05.080Z,967.39
2018-03-25T07:44:05.780Z,967.42
2018-03-25T07:45:05.282Z,967.42
2018-03-25T07:46:05.634Z,967.42
2018-03-25T07:47:05.410Z,967.55
2018-03-25T07:48:05.201Z,967.47
2018-03-25T07:49:05.818Z,967.49
2018-03-25T07:50:11.341Z,967.52
2018-03-25T07:51:05.122Z,967.66
2018-03-25T07:52:06.170Z,967.52
2018-03-25T07:53:05.153Z,967.46
2018-03-25T07:54:05.567Z,967.51
2018-03-25T07:55:05.624Z,967.54
2018-03-25T07:56:05.864Z,967.54
2018-03-25T07:57:05.806Z,967.54
2018-03-25T07:58:05.752Z,967.73
2018-03-25T07:59:05.557Z,967.59
2018-03-25T08:00:05.408Z,967.67
2018-03-25T08:01:04.974Z,967.59
2018-03-25T08:02:10.703Z,967.64
2018-03-25T08:03:06.378Z,967.64
2018-03-25T08:04:05.028Z,967.61
2018-03-25T08:05:05.784Z,967.63
2018-03-25T08:06:05.709Z,967.69
2018-03-25T08:07:04.983Z,967.69
2018-03-25T08:08:05.834Z,967.74
2018-03-25T08:09:06.065Z,967.54
2018-03-25T08:10:05.953Z,967.74
2018-03-25T08:11:06.636Z,967.71
2018-03-25T08:12:05.259Z,967.62
2018-03-25T08:13:05.993Z,967.76
2018-03-25T08:14:05.734Z,967.76
2018-03-25T08:15:05.827Z,967.56
2018-03-25T08:16:05.964Z,967.81
2018-03-25T08:17:05.966Z,967.75
2018-03-25T08:18:05.998Z,967.83
2018-03-25T08:19:05.459Z,967.80
2018-03-25T08:20:05.371Z,967.72
2018-03-25T08:21:05.102Z,967.80
2018-03-25T08:22:05.167Z,967.74
2018-03-25T08:23:05.034Z,967.80
2018-03-25T08:24:10.061Z,967.83
2018-03-25T08:25:06.054Z,967.74
2018-03-25T08:26:05.397Z,967.91
2018-03-25T08:27:05.792Z,967.76
2018-03-25T08:28:04.945Z,967.88
2018-03-25T08:29:05.744Z,967.90
2018-03-25T08:30:05.059Z,967.90
2018-03-25T08:31:05.672Z,967.79
2018-03-25T08:32:05.379Z,967.93
2018-03-25T08:33:05.983Z,967.87
2018-03-25T08:34:05.027Z,967.95
2018-03-25T08:35:06.034Z,967.87
2018-03-25T08:36:05.506Z,967.87
2018-03-25T08:37:05.310Z,968.00
2018-03-25T08:38:05.144Z,967.97
2018-03-25T08:39:05.074Z,967.86
2018-03-25T08:40:05.524Z,967.89
2018-03-25T08:41:06.006Z,967.88
2018-03-25T08:42:05.837Z,967.85
2018-03-25T08:43:05.822Z,967.91
2018-03-25T08:44:05.903Z,967.90
2018-03-25T08:45:05.470Z,967.96
2018-03-25T08:46:05.888Z,967.99
2018-03-25T08:47:05.143Z,967.99
2018-03-25T08:48:05.199Z,967.98
2018-03-25T08:49:05.679Z,967.98
2018-03-25T08:50:05.703Z,967.92
2018-03-25T08:51:09.614Z,967.89
2018-03-25T08:52:05.288Z,968.01
2018-03-25T08:53:05.201Z,968.06
2018-03-25T08:54:05.988Z,968.03
2018-03-25T08:55:05.858Z,968.00
2018-03-25T08:56:05.575Z,968.14
2018-03-25T08:57:05.378Z,968.03
2018-03-25T08:58:05.851Z,968.03
2018-03-25T08:59:05.863Z,968.06
2018-03-25T09:00:05.502Z,968.05
2018-03-25T09:01:05.253Z,968.00
2018-03-25T09:02:06.019Z,967.94
2018-03-25T09:03:06.036Z,968.08
2018-03-25T09:04:05.176Z,967.93
2018-03-25T09:05:05.899Z,967.87
2018-03-25T09:06:05.729Z,968.10
2018-03-25T09:07:05.408Z,968.15
2018-03-25T09:08:05.298Z,968.04
2018-03-25T09:09:05.243Z,968.10
2018-03-25T09:10:06.136Z,967.98
2018-03-25T09:11:05.791Z,968.09
2018-03-25T09:12:05.401Z,968.03
2018-03-25T09:13:05.423Z,967.97
2018-03-25T09:14:05.674Z,968.09
2018-03-25T09:15:05.759Z,968.00
2018-03-25T09:16:05.832Z,968.09
2018-03-25T09:17:05.726Z,968.14
2018-03-25T09:18:05.868Z,968.00
2018-03-25T09:19:04.975Z,967.99
2018-03-25T09:20:05.921Z,968.05
2018-03-25T09:21:10.583Z,967.88
2018-03-25T09:22:05.523Z,967.93
2018-03-25T09:23:10.496Z,968.07
2018-03-25T09:24:05.484Z,968.07
2018-03-25T09:25:05.504Z,967.95
2018-03-25T09:26:05.374Z,967.95
2018-03-25T09:27:05.122Z,967.92
2018-03-25T09:28:05.325Z,968.03
2018-03-25T09:29:05.402Z,968.00
2018-03-25T09:30:05.144Z,968.06
2018-03-25T09:31:05.659Z,967.88
2018-03-25T09:32:05.325Z,967.97
2018-03-25T09:33:05.195Z,968.02
2018-03-25T09:34:05.305Z,968.05
2018-03-25T09:35:05.403Z,967.99
2018-03-25T09:36:05.875Z,968.04
2018-03-25T09:37:05.575Z,968.07
2018-03-25T09:38:05.864Z,968.04
2018-03-25T09:39:05.004Z,968.07
2018-03-25T09:40:05.671Z,968.12
2018-03-25T09:41:05.447Z,968.06
2018-03-25T09:42:05.537Z,968.03
2018-03-25T09:43:05.494Z,968.00
2018-03-25T09:44:05.646Z,968.14
2018-03-25T09:45:05.384Z,968.11
2018-03-25T09:46:05.100Z,967.99
2018-03-25T09:47:05.411Z,968.04
2018-03-25T09:48:05.420Z,968.04
2018-03-25T09:49:08.532Z,968.10
2018-03-25T09:50:05.475Z,968.12
2018-03-25T09:51:05.079Z,968.09
2018-03-25T09:52:05.078Z,968.23
2018-03-25T09:53:10.985Z,968.06
2018-03-25T09:54:05.213Z,968.09
2018-03-25T09:55:05.649Z,968.12
2018-03-25T09:56:05.616Z,968.09
2018-03-25T09:57:05.630Z,967.97
2018-03-25T09:58:05.402Z,968.06
2018-03-25T09:59:05.233Z,968.14
2018-03-25T10:00:05.168Z,968.14
2018-03-25T10:01:05.788Z,968.16
2018-03-25T10:02:05.044Z,968.13
2018-03-25T10:03:05.498Z,968.16
2018-03-25T10:04:05.758Z,968.10
2018-03-25T10:05:05.865Z,968.24
2018-03-25T10:06:05.955Z,968.21
2018-03-25T10:07:05.129Z,968.07
2018-03-25T10:08:05.839Z,968.27
2018-03-25T10:09:05.591Z,968.12
2018-03-25T10:10:05.759Z,968.09
2018-03-25T10:11:05.207Z,968.06
2018-03-25T10:12:05.291Z,968.18
2018-03-25T10:13:06.524Z,968.17
2018-03-25T10:14:05.536Z,968.20
2018-03-25T10:15:05.684Z,968.06
2018-03-25T10:16:05.702Z,968.11
2018-03-25T10:17:05.798Z,968.03
2018-03-25T10:18:10.774Z,968.14
2018-03-25T10:19:05.591Z,968.28
2018-03-25T10:20:06.117Z,968.08
2018-03-25T10:21:05.254Z,968.05
2018-03-25T10:22:05.513Z,968.13
2018-03-25T10:23:05.658Z,968.08
2018-03-25T10:24:05.501Z,968.13
2018-03-25T10:25:05.202Z,968.10
2018-03-25T10:26:05.795Z,968.27
2018-03-25T10:27:05.134Z,968.13
2018-03-25T10:28:05.166Z,968.07
2018-03-25T10:29:05.041Z,968.15
2018-03-25T10:30:05.099Z,968.29
2018-03-25T10:31:05.831Z,968.12
2018-03-25T10:32:05.576Z,968.15
2018-03-25T10:33:05.544Z,968.12
2018-03-25T10:34:05.085Z,968.18
2018-03-25T10:35:05.196Z,968.20
2018-03-25T10:36:06.111Z,968.26
2018-03-25T10:37:05.382Z,968.17
2018-03-25T10:38:05.176Z,968.11
2018-03-25T10:39:06.116Z,968.25
2018-03-25T10:40:05.582Z,968.22
2018-03-25T10:41:05.746Z,968.14
2018-03-25T10:42:05.304Z,968.17
2018-03-25T10:43:05.390Z,968.14
2018-03-25T10:44:05.075Z,968.31
2018-03-25T10:45:05.828Z,968.19
2018-03-25T10:46:05.545Z,968.11
2018-03-25T10:47:05.744Z,968.22
2018-03-25T10:48:05.320Z,968.16
2018-03-25T10:49:05.356Z,968.28
2018-03-25T10:50:05.285Z,968.28
2018-03-25T10:51:05.185Z,968.13
2018-03-25T10:52:05.903Z,968.22
2018-03-25T10:53:05.817Z,968.13
2018-03-25T10:54:05.344Z,968.18
2018-03-25T10:55:04.987Z,968.18
2018-03-25T10:56:05.659Z,968.12
2018-03-25T10:57:05.280Z,968.21
2018-03-25T10:58:05.492Z,968.15
2018-03-25T10:59:05.162Z,968.20
2018-03-25T11:00:05.803Z,968.09
2018-03-25T11:01:05.106Z,968.20
2018-03-25T11:02:05.367Z,968.17
2018-03-25T11:03:05.839Z,968.11
2018-03-25T11:04:05.623Z,968.17
2018-03-25T11:05:05.366Z,968.20
2018-03-25T11:06:05.692Z,968.17
2018-03-25T11:07:05.051Z,968.08
2018-03-25T11:08:05.555Z,968.11
2018-03-25T11:09:05.278Z,968.05
2018-03-25T11:10:05.524Z,968.19
2018-03-25T11:11:04.953Z,968.19
2018-03-25T11:12:05.769Z,968.13
2018-03-25T11:13:05.542Z,968.19
2018-03-25T11:14:05.358Z,968.19
2018-03-25T11:15:05.214Z,968.19
2018-03-25T11:16:05.394Z,968.04
2018-03-25T11:17:05.663Z,968.16
2018-03-25T11:18:05.332Z,968.21
2018-03-25T11:19:10.070Z,968.10
2018-03-25T11:20:05.735Z,968.27
2018-03-25T11:21:05.494Z,968.12
2018-03-25T11:22:05.737Z,968.01
2018-03-25T11:23:05.732Z,968.19
2018-03-25T11:24:05.370Z,968.10
2018-03-25T11:25:05.483Z,968.07
2018-03-25T11:26:05.346Z,968.08
2018-03-25T11:27:05.132Z,968.08
2018-03-25T11:28:07.256Z,968.10
2018-03-25T11:29:05.514Z,968.25
2018-03-25T11:30:05.575Z,968.02
2018-03-25T11:31:05.466Z,968.07
2018-03-25T11:32:05.025Z,968.02
2018-03-25T11:33:06.051Z,968.07
2018-03-25T11:34:05.903Z,968.07
2018-03-25T11:35:05.294Z,968.04
2018-03-25T11:36:05.384Z,968.09
2018-03-25T11:37:05.059Z,968.06
2018-03-25T11:38:05.603Z,968.09
2018-03-25T11:39:06.027Z,968.14
2018-03-25T11:40:06.178Z,968.03
2018-03-25T11:41:05.740Z,968.20
2018-03-25T11:42:05.179Z,968.17
2018-03-25T11:43:05.713Z,968.03
2018-03-25T11:44:05.696Z,968.06
2018-03-25T11:45:05.753Z,968.11
2018-03-25T11:46:05.533Z,968.14
2018-03-25T11:47:05.584Z,968.09
2018-03-25T11:48:05.824Z,968.06
2018-03-25T11:49:05.969Z,968.00
2018-03-25T11:50:05.333Z,968.06
2018-03-25T11:51:05.419Z,968.14
2018-03-25T11:52:05.435Z,968.08
2018-03-25T11:53:05.049Z,968.05
2018-03-25T11:54:05.861Z,968.02
2018-03-25T11:55:05.871Z,968.14
2018-03-25T11:56:05.190Z,968.05
2018-03-25T11:57:05.297Z,968.08
2018-03-25T11:58:05.445Z,968.11
2018-03-25T11:59:05.564Z,967.91
2018-03-25T12:00:05.651Z,967.96
2018-03-25T12:01:05.600Z,968.10
2018-03-25T12:02:05.816Z,968.08
2018-03-25T12:03:06.169Z,968.16
2018-03-25T12:04:05.943Z,968.08
2018-03-25T12:05:05.873Z,968.13
2018-03-25T12:06:06.075Z,968.10
2018-03-25T12:07:05.348Z,968.16
2018-03-25T12:08:05.849Z,968.18
2018-03-25T12:09:05.408Z,968.13
2018-03-25T12:10:05.216Z,967.98
2018-03-25T12:11:06.544Z,968.07
2018-03-25T12:12:05.879Z,968.12
2018-03-25T12:13:06.038Z,968.09
2018-03-25T12:14:05.242Z,968.21
2018-03-25T12:15:05.624Z,968.01
2018-03-25T12:16:05.062Z,968.07
2018-03-25T12:17:06.607Z,968.10
2018-03-25T12:18:05.089Z,968.10
2018-03-25T12:19:05.976Z,968.07
2018-03-25T12:20:05.607Z,968.07
2018-03-25T12:21:05.270Z,968.02
2018-03-25T12:22:05.352Z,968.10
2018-03-25T12:23:05.443Z,968.04
2018-03-25T12:24:05.545Z,968.10
2018-03-25T12:25:05.424Z,968.01
2018-03-25T12:26:05.042Z,968.06
2018-03-25T12:27:05.571Z,968.12
2018-03-25T12:28:05.724Z,968.12